Flight Track Log - Related Links

Times and Time Zones

All times are in EDT time to prevent confusion due to time zone crossing. See the CSN6887 flight status page for this flight to view local times or setup timezone preferences in your user account.

Time Position Orientation Groundspeed Altitude Reporting Facility
EDT Latitude Longitude Course Direction KTS MPH feet Rate Location/Type
Wed 09:07:00 AM 43.8386 87.6065 126° Southeast  Level Estimated
Wed 09:08:00 AM 43.7699 87.7385 126° Southeast  Level Estimated
Wed 09:09:00 AM 43.7010 87.8702 126° Southeast  Level Estimated
Wed 09:10:00 AM 43.6320 88.0016 126° Southeast  Level Estimated
Wed 09:11:00 AM 43.5629 88.1327 126° Southeast  Level Estimated
Wed 09:12:00 AM 43.4936 88.2635 126° Southeast  Level Estimated
Wed 09:13:00 AM 43.4241 88.3940 126° Southeast  Level Estimated
Wed 09:14:00 AM 43.3545 88.5241 126° Southeast  Level Estimated
Wed 09:15:00 AM 43.2848 88.6540 126° Southeast  Level Estimated
Wed 09:16:00 AM 43.2149 88.7836 126° Southeast  Level Estimated
Wed 09:17:00 AM 43.1448 88.9129 127° Southeast  Level Estimated
Wed 09:18:00 AM 43.0747 89.0419 127° Southeast  Level Estimated
Wed 09:19:00 AM 43.0043 89.1706 127° Southeast  Level Estimated
Wed 09:20:00 AM 42.9339 89.2990 127° Southeast  Level Estimated
Wed 09:21:00 AM 42.8633 89.4271 127° Southeast  Level Estimated
Wed 09:22:00 AM 42.7925 89.5549 127° Southeast  Level Estimated
Wed 09:23:00 AM 42.7216 89.6824 127° Southeast  Level Estimated
Wed 09:24:00 AM 42.6506 89.8097 127° Southeast  Level Estimated
Wed 09:25:00 AM 42.5794 89.9366 127° Southeast  Level Estimated
Wed 09:26:00 AM 42.5080 90.0632 127° Southeast  Level Estimated
Wed 09:27:00 AM 42.4366 90.1896 127° Southeast  Level Estimated
Wed 09:28:00 AM 42.3650 90.3157 128° Southeast  Level Estimated
Wed 09:29:00 AM 42.2933 90.4415 128° Southeast  Level Estimated
Wed 09:30:00 AM 42.2214 90.5670 128° Southeast  Level Estimated
Wed 09:31:00 AM 42.1494 90.6922 128° Southeast  Level Estimated
Wed 09:32:00 AM 42.0772 90.8171 128° Southeast  Level Estimated
Wed 09:33:00 AM 42.0050 90.9418 128° Southeast  Level Estimated
Wed 09:34:00 AM 41.9325 91.0661 128° Southeast  Level Estimated
Wed 09:35:00 AM 41.8600 91.1902 128° Southeast  Level Estimated
Wed 09:36:00 AM 41.7873 91.3140 128° Southeast  Level Estimated
Wed 09:37:00 AM 41.7145 91.4375 128° Southeast  Level Estimated
Wed 09:38:00 AM 41.6415 91.5608 128° Southeast  Level Estimated
Wed 09:39:00 AM 41.5685 91.6837 128° Southeast  Level Estimated
Wed 09:40:00 AM 41.4953 91.8064 129° Southeast  Level Estimated
Wed 09:41:00 AM 41.4219 91.9288 129° Southeast  Level Estimated
Wed 09:42:00 AM 41.3484 92.0510 129° Southeast  Level Estimated
Wed 09:43:00 AM 41.2748 92.1728 129° Southeast  Level Estimated
Wed 09:44:00 AM 41.2011 92.2944 129° Southeast  Level Estimated
Wed 09:45:00 AM 41.1273 92.4157 129° Southeast  Level Estimated
Wed 09:46:00 AM 41.0533 92.5367 129° Southeast  Level Estimated
Wed 09:47:00 AM 40.9792 92.6575 129° Southeast  Level Estimated
Wed 09:48:00 AM 40.9050 92.7780 129° Southeast  Level Estimated
Wed 09:49:00 AM 40.8306 92.8982 129° Southeast  Level Estimated
Wed 09:50:00 AM 40.7561 93.0181 129° Southeast  Level Estimated
Wed 09:51:00 AM 40.6815 93.1378 129° Southeast  Level Estimated
Wed 09:52:00 AM 40.6068 93.2572 129° Southeast  Level Estimated
Wed 09:53:00 AM 40.5319 93.3764 130° Southeast  Level Estimated
Wed 09:54:00 AM 40.4570 93.4953 130° Southeast  Level Estimated
Wed 09:55:00 AM 40.3819 93.6139 130° Southeast  Level Estimated
Wed 09:56:00 AM 40.3067 93.7322 130° Southeast  Level Estimated
Wed 09:57:00 AM 40.2313 93.8503 130° Southeast  Level Estimated
Wed 09:58:00 AM 40.1559 93.9681 130° Southeast  Level Estimated
Wed 09:59:00 AM 40.0803 94.0857 130° Southeast  Level Estimated
Wed 10:00:00 AM 40.0046 94.2030 130° Southeast  Level Estimated
Wed 10:01:00 AM 39.9288 94.3200 130° Southeast  Level Estimated
Wed 10:02:00 AM 39.8529 94.4368 130° Southeast  Level Estimated
Wed 10:03:00 AM 39.7768 94.5533 130° Southeast  Level Estimated
Wed 10:04:00 AM 39.7006 94.6696 130° Southeast  Level Estimated
Wed 10:05:00 AM 39.6244 94.7856 130° Southeast  Level Estimated
Wed 10:06:00 AM 39.5480 94.9014 131° Southeast  Level Estimated
Wed 10:07:00 AM 39.4715 95.0169 131° Southeast  Level Estimated
Wed 10:08:00 AM 39.3949 95.1321 131° Southeast  Level Estimated
Wed 10:09:00 AM 39.3181 95.2471 131° Southeast  Level Estimated
Wed 10:10:00 AM 39.2413 95.3618 131° Southeast  Level Estimated
Wed 10:11:00 AM 39.1643 95.4763 131° Southeast  Level Estimated
Wed 10:12:00 AM 39.0872 95.5906 131° Southeast  Level Estimated
Wed 10:13:00 AM 39.0101 95.7046 131° Southeast  Level Estimated
Wed 10:14:00 AM 38.9328 95.8183 131° Southeast  Level Estimated
Wed 10:15:00 AM 38.8554 95.9318 131° Southeast  Level Estimated
Wed 10:16:00 AM 38.7779 96.0450 131° Southeast  Level Estimated
Wed 10:17:00 AM 38.7002 96.1580 131° Southeast  Level Estimated
Wed 10:18:00 AM 38.6225 96.2708 131° Southeast  Level Estimated
Wed 10:19:00 AM 38.5447 96.3833 131° Southeast  Level Estimated
Wed 10:20:00 AM 38.4667 96.4956 132° Southeast  Level Estimated
Wed 10:21:00 AM 38.3887 96.6076 132° Southeast  Level Estimated
Wed 10:22:00 AM 38.3105 96.7194 132° Southeast  Level Estimated
Wed 10:23:00 AM 38.2322 96.8309 132° Southeast  Level Estimated
Wed 10:24:00 AM 38.1539 96.9422 132° Southeast  Level Estimated
Wed 10:25:00 AM 38.0754 97.0533 132° Southeast  Level Estimated
Wed 10:26:00 AM 37.9968 97.1641 132° Southeast  Level Estimated
Wed 10:27:00 AM 37.9181 97.2747 132° Southeast  Level Estimated
Wed 10:28:00 AM 37.8393 97.3850 132° Southeast  Level Estimated
Wed 10:29:00 AM 37.7604 97.4951 132° Southeast  Level Estimated
Wed 10:30:00 AM 37.6815 97.6050 132° Southeast  Level Estimated
Wed 10:31:00 AM 37.6024 97.7147 132° Southeast  Level Estimated
Wed 10:32:00 AM 37.5232 97.8241 132° Southeast  Level Estimated
Wed 10:33:00 AM 37.4439 97.9332 132° Southeast  Level Estimated
Wed 10:34:00 AM 37.3645 98.0422 132° Southeast  Level Estimated
Wed 10:35:00 AM 37.2850 98.1509 133° Southeast  Level Estimated
Wed 10:36:00 AM 37.2054 98.2594 133° Southeast  Level Estimated
Wed 10:37:00 AM 37.1257 98.3677 133° Southeast  Level Estimated
Wed 10:38:00 AM 37.0459 98.4757 133° Southeast  Level Estimated
Wed 10:39:00 AM 36.9660 98.5835 133° Southeast  Level Estimated
Wed 10:40:00 AM 36.8860 98.6911 133° Southeast  Level Estimated
Wed 10:41:00 AM 36.8060 98.7984 133° Southeast  Level Estimated
Wed 10:42:00 AM 36.7258 98.9055 133° Southeast  Level Estimated
Wed 10:43:00 AM 36.6455 99.0125 133° Southeast  Level Estimated
Wed 10:44:00 AM 36.5651 99.1191 133° Southeast  Level Estimated
Wed 10:45:00 AM 36.4846 99.2256 133° Southeast  Level Estimated
Wed 10:46:00 AM 36.4041 99.3318 133° Southeast  Level Estimated
Wed 10:47:00 AM 36.3234 99.4379 133° Southeast  Level Estimated
Wed 10:48:00 AM 36.2427 99.5437 133° Southeast  Level Estimated
Wed 10:49:00 AM 36.1618 99.6492 133° Southeast  Level Estimated
Wed 10:50:00 AM 36.0809 99.7546 134° Southeast  Level Estimated
Wed 10:51:00 AM 35.9999 99.8597 134° Southeast  Level Estimated
Wed 10:52:00 AM 35.9188 99.9647 134° Southeast  Level Estimated
Wed 10:53:00 AM 35.8376 100.0694 134° Southeast  Level Estimated
Wed 10:54:00 AM 35.7563 100.1739 134° Southeast  Level Estimated
Wed 10:55:00 AM 35.6749 100.2782 134° Southeast  Level Estimated
Wed 10:56:00 AM 35.5934 100.3823 134° Southeast  Level Estimated
Wed 10:57:00 AM 35.5118 100.4861 134° Southeast  Level Estimated
Wed 10:58:00 AM 35.4302 100.5898 134° Southeast  Level Estimated
Wed 10:59:00 AM 35.3484 100.6932 134° Southeast  Level Estimated
Wed 11:00:00 AM 35.2666 100.7964 134° Southeast  Level Estimated
Wed 11:01:00 AM 35.1847 100.8995 134° Southeast  Level Estimated
Wed 11:02:00 AM 35.1027 101.0023 134° Southeast  Level Estimated
Wed 11:03:00 AM 35.0206 101.1049 134° Southeast  Level Estimated
Wed 11:04:00 AM 34.9384 101.2073 134° Southeast  Level Estimated
Wed 11:05:00 AM 34.8561 101.3095 134° Southeast  Level Estimated
Wed 11:06:00 AM 34.7738 101.4115 134° Southeast  Level Estimated
Wed 11:07:00 AM 34.6913 101.5133 135° Southeast  Level Estimated
Wed 11:08:00 AM 34.6088 101.6149 135° Southeast  Level Estimated
Wed 11:09:00 AM 34.5262 101.7163 135° Southeast  Level Estimated
Wed 11:10:00 AM 34.4435 101.8175 135° Southeast  Level Estimated
Wed 11:11:00 AM 34.3608 101.9185 135° Southeast  Level Estimated
Wed 11:12:00 AM 34.2779 102.0193 135° Southeast  Level Estimated
Wed 11:13:00 AM 34.1950 102.1199 135° Southeast  Level Estimated
Wed 11:14:00 AM 34.1119 102.2202 135° Southeast  Level Estimated
Wed 11:15:00 AM 34.0289 102.3204 135° Southeast  Level Estimated
Wed 11:16:00 AM 33.9457 102.4204 135° Southeast  Level Estimated
Wed 11:17:00 AM 33.8624 102.5202 135° Southeast  Level Estimated
Wed 11:18:00 AM 33.7791 102.6198 135° Southeast  Level Estimated
Wed 11:19:00 AM 33.6956 102.7193 135° Southeast  Level Estimated
Wed 11:20:00 AM 33.6121 102.8185 135° Southeast  Level Estimated
Wed 11:21:00 AM 33.5286 102.9175 135° Southeast  Level Estimated
Wed 11:22:00 AM 33.4449 103.0163 135° Southeast  Level Estimated
Wed 11:23:00 AM 33.3612 103.1150 135° Southeast  Level Estimated
Wed 11:24:00 AM 33.2774 103.2134 136° Southeast  Level Estimated
Wed 11:25:00 AM 33.1935 103.3117 136° Southeast  Level Estimated
Wed 11:26:00 AM 33.1095 103.4098 136° Southeast  Level Estimated
Wed 11:27:00 AM 33.0255 103.5077 136° Southeast  Level Estimated
Wed 11:28:00 AM 32.9413 103.6054 136° Southeast  Level Estimated
Wed 11:29:00 AM 32.8571 103.7029 136° Southeast  Level Estimated
Wed 11:30:00 AM 32.7729 103.8003 136° Southeast  Level Estimated
Wed 11:31:00 AM 32.6885 103.8974 136° Southeast  Level Estimated
Wed 11:32:00 AM 32.6041 103.9944 136° Southeast  Level Estimated
Wed 11:33:00 AM 32.5196 104.0912 136° Southeast  Level Estimated
Wed 11:34:00 AM 32.4350 104.1878 136° Southeast  Level Estimated
Wed 11:35:00 AM 32.3504 104.2842 136° Southeast  Level Estimated
Wed 11:36:00 AM 32.2657 104.3804 136° Southeast  Level Estimated
Wed 11:37:00 AM 32.1809 104.4765 136° Southeast  Level Estimated
Wed 11:38:00 AM 32.0960 104.5724 136° Southeast  Level Estimated
Wed 11:39:00 AM 32.0111 104.6681 136° Southeast  Level Estimated
Wed 11:40:00 AM 31.9261 104.7636 136° Southeast  Level Estimated
Wed 11:41:00 AM 31.8410 104.8589 136° Southeast  Level Estimated
Wed 11:42:00 AM 31.7558 104.9541 136° Southeast  Level Estimated
Wed 11:43:00 AM 31.6706 105.0491 136° Southeast  Level Estimated
Wed 11:44:00 AM 31.5853 105.1440 137° Southeast  Level Estimated
Wed 11:45:00 AM 31.5000 105.2386 137° Southeast  Level Estimated
Wed 11:46:00 AM 31.4145 105.3331 137° Southeast  Level Estimated
Wed 11:47:00 AM 31.3290 105.4274 137° Southeast  Level Estimated
Wed 11:48:00 AM 31.2435 105.5215 137° Southeast  Level Estimated
Wed 11:49:00 AM 31.1578 105.6155 137° Southeast  Level Estimated
Wed 11:50:00 AM 31.0721 105.7093 137° Southeast  Level Estimated
Wed 11:51:00 AM 30.9863 105.8029 137° Southeast  Level Estimated
Wed 11:52:00 AM 30.9005 105.8964 137° Southeast  Level Estimated
Wed 11:53:00 AM 30.8146 105.9897 137° Southeast  Level Estimated
Wed 11:54:00 AM 30.7286 106.0828 137° Southeast  Level Estimated
Wed 11:55:00 AM 30.6426 106.1758 137° Southeast  Level Estimated
Wed 11:56:00 AM 30.5565 106.2685 137° Southeast  Level Estimated
Wed 11:57:00 AM 30.4703 106.3612 137° Southeast  Level Estimated
Wed 11:58:00 AM 30.3841 106.4537 137° Southeast  Level Estimated
Wed 11:59:00 AM 30.2978 106.5460 137° Southeast  Level Estimated
Wed 12:00:00 PM 30.2114 106.6381 137° Southeast  Level Estimated
Wed 12:01:00 PM 30.1250 106.7301 137° Southeast  Level Estimated
Wed 12:02:00 PM 30.0385 106.8219 137° Southeast  Level Estimated
Wed 12:03:00 PM 29.9519 106.9136 137° Southeast  Level Estimated
Wed 12:04:00 PM 29.8653 107.0051 137° Southeast  Level Estimated
Wed 12:05:00 PM 29.7786 107.0964 138° Southeast  Level Estimated
Wed 12:06:00 PM 29.6918 107.1876 138° Southeast  Level Estimated
Wed 12:07:00 PM 29.6050 107.2786 138° Southeast  Level Estimated
Wed 12:08:00 PM 29.5182 107.3695 138° Southeast  Level Estimated
Wed 12:09:00 PM 29.4312 107.4602 138° Southeast  Level Estimated
Wed 12:10:00 PM 29.3442 107.5507 138° Southeast  Level Estimated
Wed 12:11:00 PM 29.2572 107.6411 138° Southeast  Level Estimated
Wed 12:12:00 PM 29.1700 107.7314 138° Southeast  Level Estimated
Wed 12:13:00 PM 29.0829 107.8215 138° Southeast  Level Estimated
Wed 12:14:00 PM 28.9956 107.9114 138° Southeast  Level Estimated
Wed 12:15:00 PM 28.9083 108.0012 138° Southeast  Level Estimated
Wed 12:16:00 PM 28.8210 108.0908 138° Southeast  Level Estimated
Wed 12:17:00 PM 28.7335 108.1803 138° Southeast  Level Estimated
Wed 12:18:00 PM 28.6461 108.2697 138° Southeast  Level Estimated
Wed 12:19:00 PM 28.5585 108.3589 138° Southeast  Level Estimated
Wed 12:20:00 PM 28.4709 108.4479 138° Southeast  Level Estimated
Wed 12:21:00 PM 28.3833 108.5368 138° Southeast  Level Estimated
Wed 12:22:00 PM 28.2956 108.6255 138° Southeast  Level Estimated
Wed 12:23:00 PM 28.2078 108.7141 138° Southeast  Level Estimated
Wed 12:24:00 PM 28.1200 108.8026 138° Southeast  Level Estimated
Wed 12:25:00 PM 28.0321 108.8909 138° Southeast  Level Estimated
Wed 12:26:00 PM 27.9442 108.9791 138° Southeast  Level Estimated
Wed 12:27:00 PM 27.8562 109.0671 138° Southeast  Level Estimated
Wed 12:28:00 PM 27.7682 109.1550 139° Southeast  Level Estimated
Wed 12:29:00 PM 27.6801 109.2427 139° Southeast  Level Estimated
Wed 12:30:00 PM 27.5919 109.3303 139° Southeast  Level Estimated
Wed 12:31:00 PM 27.5037 109.4178 139° Southeast  Level Estimated
Wed 12:32:00 PM 27.4154 109.5051 139° Southeast  Level Estimated
Wed 12:33:00 PM 27.3271 109.5923 139° Southeast  Level Estimated
Wed 12:34:00 PM 27.2387 109.6793 139° Southeast  Level Estimated
Wed 12:35:00 PM 27.1503 109.7662 139° Southeast  Level Estimated
Wed 12:36:00 PM 27.0618 109.8530 139° Southeast  Level Estimated
Wed 12:37:00 PM 26.9733 109.9396 139° Southeast  Level Estimated
Wed 12:38:00 PM 26.8847 110.0261 139° Southeast  Level Estimated
Wed 12:39:00 PM 26.7960 110.1124 139° Southeast  Level Estimated
Wed 12:40:00 PM 26.7074 110.1987 139° Southeast  Level Estimated
Wed 12:40:37 PM 24.5060 110.9520 139° Southeast 480 552 37,100  Level FlightAware
Wed 12:41:00 PM 26.6186 110.2847 139° Southeast  Level Estimated
Wed 12:41:17 PM 24.4530 111.0110 135° Southeast 480 552 37,100  Level FlightAware
Wed 12:42:02 PM 24.3780 111.0910 136° Southeast 480 552 37,100 -353 Level FlightAware
Wed 12:42:42 PM 24.3090 111.1630 136° Southeast 478 550 36,600 -880 Descending FlightAware
Wed 12:43:17 PM 24.2570 111.2190 136° Southeast 480 552 36,000 -1,059 Descending FlightAware
Wed 12:44:07 PM 24.1720 111.3100 136° Southeast 481 554 35,100 -600 Descending FlightAware
Wed 12:44:47 PM 24.1180 111.3680 136° Southeast 481 554 35,100 -1,906 Level FlightAware
Wed 12:45:32 PM 24.0390 111.4540 135° Southeast 476 548 32,400 -2,824 Descending FlightAware
Wed 12:46:12 PM 23.9750 111.5230 135° Southeast 475 547 31,100 -1,341 Descending FlightAware
Wed 12:46:57 PM 23.9110 111.5930 135° Southeast 481 554 30,500 -424 Descending FlightAware
Wed 12:47:37 PM 23.8570 111.6520 135° Southeast 481 554 30,500 -2,682 Level FlightAware
Wed 12:48:22 PM 23.7700 111.7420 137° Southeast 466 536 26,700 -3,741 Descending FlightAware
Wed 12:49:02 PM 23.7080 111.8090 135° Southeast 451 519 25,200 -2,025 Descending FlightAware
Wed 12:49:42 PM 23.6510 111.8700 136° Southeast 437 503 24,000 -1,906 Descending FlightAware
Wed 12:50:27 PM 23.5850 111.9400 136° Southeast 422 486 22,500 -2,259 Descending FlightAware
Wed 12:51:07 PM 23.5280 112.0010 136° Southeast 419 482 20,800 -2,100 Descending FlightAware
Wed 12:51:47 PM 23.4740 112.0590 135° Southeast 417 480 19,700 -1,553 Descending FlightAware
Wed 12:52:32 PM 23.4120 112.1240 136° Southeast 414 476 18,600 -1,482 Descending FlightAware
Wed 12:53:12 PM 23.3570 112.1820 136° Southeast 409 471 17,600 -1,553 Descending FlightAware
Wed 12:53:57 PM 23.2970 112.2460 136° Southeast 396 456 16,400 -1,680 Descending FlightAware
Wed 12:54:27 PM 23.2590 112.2910 133° Southeast 392 451 15,500 -1,964 Descending FlightAware
Wed 12:54:52 PM 23.2460 112.3350 108° East 392 451 14,600 -2,300 Descending FlightAware
Wed 12:55:27 PM 23.2490 112.4030 87° East 394 453 13,200 -2,118 Descending FlightAware
Wed 12:56:17 PM 23.2540 112.5030 87° East 388 447 11,600 -1,533 Descending FlightAware
Wed 12:56:57 PM 23.2590 112.5810 86° East 365 420 10,900 -600 Descending FlightAware
Wed 12:57:37 PM 23.2630 112.6510 86° East 328 377 10,800 -71 Descending FlightAware
Wed 12:58:22 PM 23.2680 112.7200 85° East 322 371 10,800 -424 Level FlightAware
Wed 12:59:02 PM 23.2720 112.7850 86° East 319 367 10,200 -982 Descending FlightAware
Wed 12:59:17 PM 23.2730 112.8070 87° East 316 364 9,900 -1,050 Descending FlightAware
Wed 12:59:42 PM 23.2760 112.8500 86° East 316 364 9,500 -1,050 Descending FlightAware
Wed 12:59:57 PM 23.2780 112.8740 85° East 316 364 9,200 -1,000 Descending FlightAware
Wed 01:00:12 PM 23.2890 112.8950 60° Northeast 314 361 9,000 -1,000 Descending FlightAware
Wed 01:00:27 PM 23.3050 112.9090 39° Northeast 309 356 8,700 -1,000 Descending FlightAware
Wed 01:00:42 PM 23.3240 112.9230 34° Northeast 306 352 8,500 -1,050 Descending FlightAware
Wed 01:01:07 PM 23.3520 112.9450 36° Northeast 298 343 8,000 -1,050 Descending FlightAware
Wed 01:01:22 PM 23.3660 112.9600 45° Northeast 299 344 7,800 -933 Descending FlightAware
Wed 01:01:52 PM 23.3990 112.9890 39° Northeast 297 342 7,300 -982 Descending FlightAware
Wed 01:02:17 PM 23.4270 113.0140 39° Northeast 297 342 6,900 -1,050 Descending FlightAware
Wed 01:02:32 PM 23.4430 113.0270 37° Northeast 297 342 6,600 -1,067 Descending FlightAware
Wed 01:03:02 PM 23.4740 113.0550 40° Northeast 295 339 6,100 -655 Descending FlightAware
Wed 01:03:27 PM 23.5020 113.0800 39° Northeast 291 335 6,000 -109 Descending FlightAware
Wed 01:03:57 PM 23.5310 113.1050 38° Northeast 265 305 6,000  Level FlightAware
Wed 01:04:27 PM 23.5590 113.1300 39° Northeast 237 273 6,000  Level FlightAware
Wed 01:04:37 PM 23.5670 113.1370 39° Northeast 228 262 6,000  Level FlightAware
Wed 01:05:07 PM 23.5910 113.1580 39° Northeast 208 239 6,000  Level FlightAware
Wed 01:05:22 PM 23.6010 113.1670 40° Northeast 206 237 6,000  Level FlightAware
Wed 01:05:47 PM 23.6200 113.1840 39° Northeast 205 236 6,000 -218 Level FlightAware
Wed 01:06:17 PM 23.6410 113.2020 38° Northeast 206 237 5,800 -700 Descending FlightAware
Wed 01:06:47 PM 23.6650 113.2240 40° Northeast 211 243 5,300 -873 Descending FlightAware
Wed 01:07:12 PM 23.6830 113.2410 41° Northeast 211 243 5,000 -600 Descending FlightAware
Wed 01:07:27 PM 23.6920 113.2510 45° Northeast 209 241 4,900 -720 Descending FlightAware
Wed 01:07:37 PM 23.6930 113.2620 84° East 205 236 4,700 -1,050 Descending FlightAware
Wed 01:08:07 PM 23.6860 113.2930 104° East 199 229 4,200 -933 Descending FlightAware
Wed 01:08:22 PM 23.6830 113.3060 104° East 198 228 4,000 -900 Descending FlightAware
Wed 01:08:47 PM 23.6750 113.3320 109° East 193 222 3,600 -600 Descending FlightAware
Wed 01:09:32 PM 23.6440 113.3480 155° Southeast 182 209 3,300 -375 Descending FlightAware
Wed 01:10:07 PM 23.6140 113.3470 182° South 174 200 3,100 -171 Descending FlightAware
Wed 01:10:42 PM 23.5860 113.3400 193° South 164 189 3,100  Level FlightAware
Wed 01:10:57 PM 23.5750 113.3370 194° South 163 188 3,100 -300 Level FlightAware
Wed 01:11:22 PM 23.5570 113.3320 194° South 156 180 2,900 -545 Descending FlightAware
Wed 01:11:52 PM 23.5370 113.3270 193° South 140 161 2,600 -600 Descending FlightAware
Wed 01:12:22 PM 23.5190 113.3220 194° South 131 151 2,300 -400 Descending FlightAware
Wed 01:12:52 PM 23.5030 113.3180 193° South 130 150 2,200 -200 Descending FlightAware
Wed 01:15:00 PM 23.3924 113.2988 189° South  Level Estimated
Wed 01:16:00 PM 23.3924 113.2988 223° Southwest  Level Estimated
Wed 01:17:00 PM 23.3924 113.2988 223° Southwest  Level Estimated
Wed 01:18:00 PM 23.3924 113.2988 223° Southwest  Level Estimated
Wed 01:19:00 PM 23.3924 113.2988 223° Southwest  Level Estimated
Wed 01:20:00 PM 23.3924 113.2988 223° Southwest  Level Estimated
Wed 01:21:00 PM 23.3924 113.2988 223° Southwest  Level Estimated
Wed 01:22:00 PM 23.3924 113.2988 223° Southwest  Level Estimated
Wed 01:23:00 PM 23.3924 113.2988 223° Southwest  Level Estimated
Wed 01:24:00 PM 23.3924 113.2988 223° Southwest  Level Estimated
Wed 01:25:00 PM 23.3924 113.2988 223° Southwest  Level Estimated
Wed 01:26:00 PM 23.3924 113.2988 223° Southwest  Level Estimated
Wed 01:27:00 PM 23.3924 113.2988 223° Southwest  Level Estimated

Login

Don't have an account? Register now (free) for customized features, flight alerts, and more!